createdAt,value
2023-04-27T00:02:02.254Z,99.90
2023-04-27T00:04:29.291Z,99.90
2023-04-27T00:06:56.262Z,99.90
2023-04-27T00:09:23.031Z,99.90
2023-04-27T00:11:49.772Z,99.90
2023-04-27T00:14:16.652Z,99.90
2023-04-27T00:16:47.904Z,99.90
2023-04-27T00:19:15.372Z,99.90
2023-04-27T00:21:42.530Z,99.90
2023-04-27T00:24:09.175Z,99.90
2023-04-27T00:26:35.909Z,99.90
2023-04-27T00:31:29.712Z,99.90
2023-04-27T00:33:56.456Z,99.90
2023-04-27T00:36:23.122Z,99.90
2023-04-27T00:38:49.851Z,99.90
2023-04-27T00:41:16.597Z,99.90
2023-04-27T00:43:45.061Z,99.90
2023-04-27T00:46:16.907Z,99.90
2023-04-27T00:48:46.723Z,99.90
2023-04-27T00:51:16.506Z,99.90
2023-04-27T00:53:43.711Z,99.90
2023-04-27T00:56:11.120Z,99.90
2023-04-27T00:58:37.759Z,99.90
2023-04-27T01:01:07.787Z,99.90
2023-04-27T01:03:34.644Z,99.90
2023-04-27T01:06:03.803Z,99.90
2023-04-27T01:08:30.580Z,99.90
2023-04-27T01:10:57.346Z,99.90
2023-04-27T01:13:24.083Z,99.90
2023-04-27T01:15:50.887Z,99.90
2023-04-27T01:18:17.847Z,99.90
2023-04-27T01:20:47.030Z,99.90
2023-04-27T01:23:16.784Z,99.90
2023-04-27T01:25:49.187Z,99.90
2023-04-27T01:28:18.083Z,99.90
2023-04-27T01:30:47.350Z,99.90
2023-04-27T01:33:14.021Z,99.90
2023-04-27T01:35:40.743Z,99.90
2023-04-27T01:38:07.465Z,99.90
2023-04-27T01:40:34.266Z,99.90
2023-04-27T01:43:00.938Z,99.90
2023-04-27T01:45:27.621Z,99.90
2023-04-27T01:47:54.381Z,99.90
2023-04-27T01:50:27.336Z,99.90
2023-04-27T01:52:54.018Z,99.90
2023-04-27T01:55:20.707Z,99.90
2023-04-27T01:57:47.348Z,99.90
2023-04-27T02:00:14.443Z,99.90
2023-04-27T02:02:41.238Z,99.90
2023-04-27T02:05:20.580Z,99.90
2023-04-27T02:07:47.333Z,99.90
2023-04-27T02:10:14.022Z,99.90
2023-04-27T02:28:19.233Z,99.90
2023-04-27T02:31:48.781Z,99.90
2023-04-27T02:35:17.939Z,99.90
2023-04-27T02:38:59.395Z,99.90
2023-04-27T02:49:56.842Z,99.90
2023-04-27T02:53:32.237Z,99.90
2023-04-27T02:56:55.206Z,99.90
2023-04-27T03:00:17.955Z,99.90
2023-04-27T03:03:59.355Z,99.90
2023-04-27T03:07:41.111Z,99.90
2023-04-27T03:11:04.354Z,99.90
2023-04-27T03:14:27.240Z,99.90
2023-04-27T03:17:56.595Z,99.90
2023-04-27T03:21:19.845Z,99.90
2023-04-27T03:23:46.565Z,99.90
2023-04-27T03:26:14.387Z,99.90
2023-04-27T03:28:42.132Z,99.90
2023-04-27T03:31:10.966Z,99.90
2023-04-27T03:33:37.950Z,99.90
2023-04-27T03:36:08.707Z,99.90
2023-04-27T03:38:40.372Z,99.90
2023-04-27T03:41:07.070Z,99.90
2023-04-27T03:43:33.773Z,99.90
2023-04-27T03:46:00.462Z,99.90
2023-04-27T03:48:29.609Z,99.90
2023-04-27T03:50:56.281Z,99.90
2023-04-27T03:53:23.009Z,99.90
2023-04-27T03:55:49.740Z,99.90
2023-04-27T03:58:17.469Z,99.90
2023-04-27T04:00:46.482Z,99.90
2023-04-27T04:03:13.443Z,99.90
2023-04-27T04:05:42.979Z,99.90
2023-04-27T04:08:09.713Z,99.90
2023-04-27T04:10:36.453Z,99.90
2023-04-27T04:13:05.395Z,99.90
2023-04-27T04:15:34.538Z,99.90
2023-04-27T04:18:01.446Z,99.90
2023-04-27T04:20:28.352Z,99.90
2023-04-27T04:22:57.472Z,99.90
2023-04-27T04:25:26.137Z,99.90
2023-04-27T04:27:52.902Z,99.90
2023-04-27T04:30:19.974Z,99.90
2023-04-27T04:32:49.712Z,99.90
2023-04-27T04:35:19.614Z,99.90
2023-04-27T04:37:47.578Z,99.90
2023-04-27T04:40:14.441Z,99.90
2023-04-27T04:42:41.359Z,99.90
2023-04-27T04:45:08.667Z,99.90
2023-04-27T04:47:35.358Z,99.90
2023-04-27T04:50:04.251Z,99.90
2023-04-27T04:52:31.012Z,99.90
2023-04-27T04:54:57.706Z,99.90
2023-04-27T04:57:24.383Z,99.90
2023-04-27T04:59:51.146Z,99.90
2023-04-27T05:02:17.838Z,99.90
2023-04-27T05:04:46.788Z,99.90
2023-04-27T05:07:15.264Z,99.90
2023-04-27T05:09:45.081Z,99.90
2023-04-27T05:12:11.820Z,99.90
2023-04-27T05:14:38.561Z,99.90
2023-04-27T05:17:05.226Z,99.90
2023-04-27T05:19:31.985Z,99.90
2023-04-27T05:21:59.084Z,99.90
2023-04-27T05:24:26.863Z,99.90
2023-04-27T05:26:54.300Z,99.90
2023-04-27T05:29:23.253Z,99.90
2023-04-27T05:31:50.055Z,99.90
2023-04-27T05:36:47.571Z,99.90
2023-04-27T05:39:14.532Z,99.90
2023-04-27T05:41:43.619Z,99.90
2023-04-27T05:44:10.296Z,99.90
2023-04-27T05:46:38.683Z,99.90
2023-04-27T05:49:05.706Z,99.90
2023-04-27T05:51:34.941Z,99.90
2023-04-27T05:54:01.875Z,99.90
2023-04-27T05:56:31.088Z,99.90
2023-04-27T05:59:02.384Z,99.90
2023-04-27T06:01:31.903Z,99.90
2023-04-27T06:04:01.394Z,99.90
2023-04-27T06:08:58.389Z,99.90
2023-04-27T06:11:25.173Z,99.90
2023-04-27T06:13:51.892Z,99.90
2023-04-27T06:16:18.746Z,99.90
2023-04-27T06:18:45.623Z,99.90
2023-04-27T06:21:14.507Z,99.90
2023-04-27T06:23:41.163Z,99.90
2023-04-27T06:26:10.208Z,99.90
2023-04-27T06:28:36.846Z,99.90
2023-04-27T06:31:03.741Z,99.90
2023-04-27T06:36:04.777Z,99.90
2023-04-27T06:38:32.043Z,99.90
2023-04-27T06:40:59.202Z,99.90
2023-04-27T06:43:25.914Z,99.90
2023-04-27T06:45:52.765Z,99.90
2023-04-27T06:48:19.595Z,99.90
2023-04-27T06:50:47.207Z,99.90
2023-04-27T06:53:14.008Z,99.90
2023-04-27T06:55:43.464Z,99.90
2023-04-27T06:58:11.707Z,99.90
2023-04-27T07:00:40.667Z,99.90
2023-04-27T07:03:07.442Z,99.90
2023-04-27T07:05:34.705Z,99.90
2023-04-27T07:08:04.587Z,99.90
2023-04-27T07:10:33.844Z,99.90
2023-04-27T07:13:00.563Z,99.90
2023-04-27T07:15:27.406Z,99.90
2023-04-27T07:17:54.172Z,99.90
2023-04-27T07:20:23.326Z,99.90
2023-04-27T07:22:50.011Z,99.90
2023-04-27T07:25:19.768Z,99.90
2023-04-27T07:27:49.154Z,99.90
2023-04-27T07:30:18.321Z,99.90
2023-04-27T07:32:45.605Z,99.90
2023-04-27T07:35:13.486Z,99.90
2023-04-27T07:37:40.396Z,99.90
2023-04-27T07:40:16.443Z,99.90
2023-04-27T07:42:46.241Z,99.90
2023-04-27T07:45:12.956Z,99.90
2023-04-27T07:47:39.906Z,99.90
2023-04-27T07:50:09.634Z,99.90
2023-04-27T07:52:37.323Z,99.90
2023-04-27T07:55:04.662Z,99.90
2023-04-27T07:57:31.520Z,99.90
2023-04-27T08:00:00.843Z,99.90
2023-04-27T08:02:31.674Z,99.90
2023-04-27T08:05:02.960Z,99.90
2023-04-27T08:07:30.234Z,99.90
2023-04-27T08:09:56.996Z,99.90
2023-04-27T08:12:23.691Z,99.90
2023-04-27T08:14:53.052Z,99.90
2023-04-27T08:17:21.988Z,99.90
2023-04-27T08:19:56.073Z,99.90
2023-04-27T08:22:22.758Z,99.90
2023-04-27T08:24:49.432Z,99.90
2023-04-27T08:27:16.185Z,99.90
2023-04-27T08:29:49.407Z,99.90
2023-04-27T08:32:19.370Z,99.90
2023-04-27T08:34:46.514Z,99.90
2023-04-27T08:37:15.651Z,99.90
2023-04-27T08:39:42.426Z,99.90
2023-04-27T08:42:13.729Z,99.90
2023-04-27T08:44:44.479Z,99.90
2023-04-27T08:47:11.712Z,99.90
2023-04-27T08:49:38.849Z,99.90
2023-04-27T08:52:12.561Z,99.90
2023-04-27T08:54:39.540Z,99.90
2023-04-27T08:57:16.324Z,99.90
2023-04-27T08:59:48.700Z,99.90
2023-04-27T09:02:21.845Z,99.90
2023-04-27T09:04:48.835Z,99.90
2023-04-27T09:07:17.808Z,99.90
2023-04-27T09:09:45.629Z,99.90
2023-04-27T09:12:16.319Z,99.90
2023-04-27T09:14:43.534Z,99.90
2023-04-27T09:17:10.576Z,99.90
2023-04-27T09:19:39.456Z,99.90
2023-04-27T09:22:08.836Z,99.90
2023-04-27T09:24:37.846Z,99.80
2023-04-27T09:27:06.299Z,99.40
2023-04-27T09:29:37.604Z,99.70
2023-04-27T09:32:19.093Z,99.30
2023-04-27T09:34:45.855Z,99.80
2023-04-27T09:39:42.267Z,99.90
2023-04-27T09:42:09.253Z,99.50
2023-04-27T09:44:38.581Z,99.70
2023-04-27T09:47:06.293Z,99.60
2023-04-27T09:49:34.861Z,99.60
2023-04-27T09:52:04.155Z,98.80
2023-04-27T09:54:33.388Z,97.80
2023-04-27T09:57:12.740Z,98.40
2023-04-27T10:00:01.307Z,98.40
2023-04-27T10:02:30.355Z,98.80
2023-04-27T10:05:42.706Z,98.50
2023-04-27T10:08:11.433Z,98.20
2023-04-27T10:10:48.250Z,98.30
2023-04-27T10:13:27.911Z,98.80
2023-04-27T10:18:31.108Z,97.80
2023-04-27T10:21:10.059Z,99.90
2023-04-27T10:23:51.773Z,99.90
2023-04-27T10:26:29.380Z,99.90
2023-04-27T10:29:04.826Z,99.90
2023-04-27T10:31:31.930Z,99.90
2023-04-27T10:34:09.451Z,99.90
2023-04-27T10:36:40.868Z,99.90
2023-04-27T10:39:16.541Z,99.90
2023-04-27T10:41:54.370Z,99.90
2023-04-27T10:44:27.143Z,99.90
2023-04-27T10:46:55.119Z,99.90
2023-04-27T10:49:23.086Z,99.90
2023-04-27T10:51:53.224Z,99.90
2023-04-27T10:54:19.985Z,96.60
2023-04-27T10:56:46.723Z,96.70
2023-04-27T10:59:13.713Z,96.90
2023-04-27T11:01:40.916Z,96.80
2023-04-27T11:04:07.718Z,96.40
2023-04-27T11:06:42.958Z,94.90
2023-04-27T11:09:11.014Z,96.20
2023-04-27T11:11:37.814Z,95.80
2023-04-27T11:14:04.604Z,96.20
2023-04-27T11:16:33.958Z,95.70
2023-04-27T11:19:07.214Z,95.30
2023-04-27T11:21:33.913Z,95.40
2023-04-27T11:24:07.588Z,95.80
2023-04-27T11:26:34.480Z,96.00
2023-04-27T11:29:12.353Z,95.80
2023-04-27T11:31:49.052Z,95.20
2023-04-27T11:34:24.117Z,95.50
2023-04-27T11:37:23.937Z,95.30
2023-04-27T11:39:51.011Z,95.50
2023-04-27T11:42:31.454Z,94.90
2023-04-27T11:45:08.055Z,95.50
2023-04-27T11:47:38.148Z,95.20
2023-04-27T11:50:10.513Z,95.60
2023-04-27T11:52:40.461Z,95.20
2023-04-27T11:55:09.270Z,95.40
2023-04-27T12:00:15.122Z,95.40
2023-04-27T12:02:43.512Z,95.00
2023-04-27T12:05:12.315Z,94.60
2023-04-27T12:07:39.630Z,95.10
2023-04-27T12:10:07.811Z,95.10
2023-04-27T12:12:34.543Z,94.60
2023-04-27T12:15:01.633Z,94.90
2023-04-27T12:17:28.437Z,94.80
2023-04-27T12:19:55.183Z,94.80
2023-04-27T12:22:22.288Z,94.60
2023-04-27T12:24:51.340Z,95.10
2023-04-27T12:27:18.114Z,95.40
2023-04-27T12:29:44.836Z,94.40
2023-04-27T12:32:11.689Z,94.30
2023-04-27T12:34:39.361Z,94.90
2023-04-27T12:37:06.583Z,94.40
2023-04-27T12:39:33.290Z,95.10
2023-04-27T12:42:00.033Z,94.30
2023-04-27T12:44:29.206Z,94.50
2023-04-27T12:46:56.410Z,94.20
2023-04-27T12:49:23.166Z,93.80
2023-04-27T12:51:51.852Z,93.90
2023-04-27T12:54:21.157Z,93.60
2023-04-27T12:56:47.841Z,94.00
2023-04-27T12:59:19.296Z,94.60
2023-04-27T13:01:48.532Z,94.00
2023-04-27T13:04:20.892Z,93.90
2023-04-27T13:06:48.519Z,93.60
2023-04-27T13:09:17.362Z,93.20
2023-04-27T13:11:44.147Z,92.70
2023-04-27T13:14:13.149Z,92.30
2023-04-27T13:16:45.768Z,92.20
2023-04-27T13:19:12.500Z,92.00
2023-04-27T13:21:39.405Z,91.90
2023-04-27T13:24:06.670Z,91.10
2023-04-27T13:26:34.077Z,91.80
2023-04-27T13:29:02.230Z,91.60
2023-04-27T13:31:31.877Z,92.10
2023-04-27T13:33:58.723Z,91.80
2023-04-27T13:36:25.570Z,91.90
2023-04-27T13:38:54.741Z,92.30
2023-04-27T13:41:22.365Z,92.50
2023-04-27T13:43:51.501Z,91.80
2023-04-27T13:46:18.274Z,91.60
2023-04-27T13:48:44.968Z,91.70
2023-04-27T13:51:11.794Z,91.10
2023-04-27T13:53:38.482Z,91.80
2023-04-27T13:56:05.711Z,92.20
2023-04-27T13:58:32.636Z,90.70
2023-04-27T14:00:59.554Z,91.40
2023-04-27T14:03:26.499Z,90.70
2023-04-27T14:05:53.320Z,93.00
2023-04-27T14:08:24.955Z,93.20
2023-04-27T14:10:51.663Z,91.60
2023-04-27T14:13:18.708Z,98.30
2023-04-27T14:15:45.765Z,95.90
2023-04-27T14:18:12.910Z,89.60
2023-04-27T14:20:41.977Z,89.80
2023-04-27T14:23:09.360Z,90.00
2023-04-27T14:25:39.110Z,90.90
2023-04-27T14:28:06.684Z,99.90
2023-04-27T14:30:34.486Z,97.30
2023-04-27T14:33:03.857Z,94.00
2023-04-27T14:35:30.735Z,99.90
2023-04-27T14:38:01.969Z,99.90
2023-04-27T14:40:32.332Z,99.90
2023-04-27T14:42:59.500Z,93.00
2023-04-27T14:45:36.730Z,94.00
2023-04-27T14:48:06.913Z,94.20
2023-04-27T14:50:33.693Z,93.30
2023-04-27T14:53:02.906Z,93.20
2023-04-27T14:55:29.695Z,93.50
2023-04-27T14:57:56.416Z,93.60
2023-04-27T15:02:55.027Z,99.90
2023-04-27T15:05:25.011Z,99.90
2023-04-27T15:07:51.702Z,99.90
2023-04-27T15:10:18.675Z,99.90
2023-04-27T15:12:46.532Z,99.90
2023-04-27T15:15:13.487Z,99.90
2023-04-27T15:17:40.217Z,99.90
2023-04-27T15:20:10.752Z,99.90
2023-04-27T15:37:28.480Z,99.90
2023-04-27T15:39:55.800Z,99.90
2023-04-27T15:42:23.736Z,99.90
2023-04-27T15:44:50.982Z,99.90
2023-04-27T15:54:53.608Z,99.90
2023-04-27T15:57:25.035Z,97.30
2023-04-27T15:59:54.203Z,92.80
2023-04-27T16:02:21.353Z,92.50
2023-04-27T16:04:49.160Z,92.30
2023-04-27T16:07:15.904Z,92.70
2023-04-27T16:09:45.052Z,92.80
2023-04-27T16:12:14.240Z,93.10
2023-04-27T16:14:45.862Z,93.00
2023-04-27T16:17:12.590Z,93.00
2023-04-27T16:19:41.599Z,92.90
2023-04-27T16:22:08.361Z,92.70
2023-04-27T16:24:35.090Z,94.30
2023-04-27T16:27:04.104Z,95.20
2023-04-27T16:34:27.892Z,88.70
2023-04-27T16:36:55.026Z,89.80
2023-04-27T16:39:24.519Z,90.20
2023-04-27T16:41:51.252Z,90.10
2023-04-27T16:44:20.279Z,90.30
2023-04-27T16:46:52.441Z,90.30
2023-04-27T16:49:21.513Z,90.70
2023-04-27T16:51:48.244Z,90.90
2023-04-27T16:54:16.518Z,90.50
2023-04-27T16:56:46.571Z,90.50
2023-04-27T16:59:13.583Z,90.40
2023-04-27T17:01:40.667Z,90.90
2023-04-27T17:04:07.625Z,91.30
2023-04-27T17:06:36.555Z,90.90
2023-04-27T17:09:03.284Z,91.20
2023-04-27T17:11:32.392Z,91.10
2023-04-27T17:13:59.310Z,91.00
2023-04-27T17:16:30.848Z,91.10
2023-04-27T17:18:57.567Z,91.10
2023-04-27T17:21:25.470Z,90.90
2023-04-27T17:23:54.587Z,90.90
2023-04-27T17:26:21.690Z,98.00
2023-04-27T17:28:49.501Z,98.10
2023-04-27T17:31:19.456Z,98.70
2023-04-27T17:33:46.166Z,98.30
2023-04-27T17:36:15.164Z,98.40
2023-04-27T17:38:44.270Z,98.50
2023-04-27T17:41:13.115Z,99.90
2023-04-27T17:43:39.886Z,99.90
2023-04-27T17:46:09.551Z,99.90
2023-04-27T17:48:38.795Z,99.90
2023-04-27T17:51:05.751Z,99.90
2023-04-27T17:53:32.489Z,99.90
2023-04-27T17:56:01.525Z,99.90
2023-04-27T17:58:28.227Z,99.90
2023-04-27T18:05:56.088Z,99.90
2023-04-27T18:08:22.755Z,95.50
2023-04-27T18:10:49.482Z,93.90
2023-04-27T18:13:16.278Z,92.80
2023-04-27T18:15:43.136Z,94.20
2023-04-27T18:18:11.166Z,95.30
2023-04-27T18:20:37.940Z,95.70
2023-04-27T18:23:04.671Z,96.20
2023-04-27T18:25:33.850Z,96.00
2023-04-27T18:28:00.755Z,95.40
2023-04-27T18:30:27.543Z,96.10
2023-04-27T18:32:54.251Z,96.20
2023-04-27T18:35:21.068Z,96.30
2023-04-27T18:40:19.064Z,99.90
2023-04-27T18:42:48.050Z,97.30
2023-04-27T18:45:15.385Z,95.30
2023-04-27T18:47:42.180Z,94.10
2023-04-27T18:50:10.357Z,94.10
2023-04-27T18:52:37.050Z,93.80
2023-04-27T18:55:04.044Z,93.90
2023-04-27T18:57:35.538Z,94.10
2023-04-27T19:00:04.495Z,94.20
2023-04-27T19:02:31.756Z,94.20
2023-04-27T19:05:11.367Z,94.10
2023-04-27T19:07:42.550Z,94.20
2023-04-27T19:10:09.767Z,94.10
2023-04-27T19:12:36.551Z,94.50
2023-04-27T19:15:03.711Z,94.70
2023-04-27T19:17:33.089Z,94.80
2023-04-27T19:19:59.954Z,95.00
2023-04-27T19:22:34.030Z,95.50
2023-04-27T19:27:28.352Z,99.90
2023-04-27T19:29:58.724Z,99.90
2023-04-27T19:32:28.621Z,99.90
2023-04-27T19:34:56.964Z,99.90
2023-04-27T19:37:27.800Z,99.90
2023-04-27T19:39:54.786Z,99.90
2023-04-27T19:42:24.906Z,99.90
2023-04-27T19:44:51.723Z,99.90
2023-04-27T19:47:18.656Z,99.90
2023-04-27T19:49:49.820Z,99.90
2023-04-27T19:52:16.483Z,99.90
2023-04-27T19:54:43.208Z,99.90
2023-04-27T19:57:09.962Z,99.90
2023-04-27T19:59:39.125Z,99.90
2023-04-27T20:02:05.877Z,99.90
2023-04-27T20:05:29.341Z,99.90
2023-04-27T20:08:52.656Z,99.90
2023-04-27T20:12:34.920Z,99.90
2023-04-27T20:16:05.088Z,99.90
2023-04-27T20:19:28.426Z,99.90
2023-04-27T20:22:51.392Z,99.90
2023-04-27T20:26:14.582Z,99.90
2023-04-27T20:29:37.453Z,99.90
2023-04-27T20:33:07.081Z,99.90
2023-04-27T20:36:17.045Z,99.90
2023-04-27T20:39:46.975Z,99.90
2023-04-27T20:43:10.167Z,99.90
2023-04-27T20:46:39.339Z,99.90
2023-04-27T20:50:02.293Z,99.90
2023-04-27T20:53:37.522Z,99.90
2023-04-27T20:57:00.543Z,99.90
2023-04-27T21:00:23.732Z,99.90
2023-04-27T21:07:33.881Z,99.90
2023-04-27T21:11:02.866Z,99.90
2023-04-27T21:14:31.910Z,99.90
2023-04-27T21:18:13.415Z,99.90
2023-04-27T21:21:45.745Z,99.90
2023-04-27T21:28:49.848Z,99.90
2023-04-27T21:32:31.163Z,99.90
2023-04-27T21:36:06.231Z,99.90
2023-04-27T21:39:35.685Z,99.90
2023-04-27T21:42:58.480Z,99.90
2023-04-27T21:46:33.696Z,99.90
2023-04-27T21:49:57.127Z,99.90
2023-04-27T21:52:42.085Z,99.90
2023-04-27T21:55:26.969Z,99.90
2023-04-27T21:57:59.312Z,99.90
2023-04-27T22:00:38.864Z,99.90
2023-04-27T22:03:08.892Z,99.90
2023-04-27T22:06:00.433Z,99.90
2023-04-27T22:08:51.845Z,99.90
2023-04-27T22:11:43.222Z,99.90
2023-04-27T22:14:41.750Z,99.90
2023-04-27T22:17:15.140Z,99.90
2023-04-27T22:19:47.995Z,99.90
2023-04-27T22:22:16.892Z,99.90
2023-04-27T22:24:45.691Z,99.90
2023-04-27T22:27:12.759Z,99.90
2023-04-27T22:29:39.450Z,99.90
2023-04-27T22:32:06.588Z,99.90
2023-04-27T22:34:33.830Z,99.90
2023-04-27T22:37:00.645Z,99.90
2023-04-27T22:39:27.417Z,99.90
2023-04-27T22:41:56.539Z,99.90
2023-04-27T22:44:23.215Z,99.90
2023-04-27T22:46:49.969Z,99.90
2023-04-27T22:49:17.300Z,99.90
2023-04-27T22:51:47.098Z,99.90
2023-04-27T22:54:16.446Z,99.90
2023-04-27T22:56:43.320Z,99.90
2023-04-27T22:59:10.083Z,99.90
2023-04-27T23:01:36.831Z,99.90
2023-04-27T23:04:06.001Z,99.90
2023-04-27T23:06:32.882Z,99.90
2023-04-27T23:09:03.074Z,99.90
2023-04-27T23:11:29.769Z,99.90
2023-04-27T23:13:58.936Z,99.90
2023-04-27T23:16:30.069Z,99.90
2023-04-27T23:18:56.760Z,99.90
2023-04-27T23:21:28.128Z,99.90
2023-04-27T23:23:54.811Z,99.90
2023-04-27T23:26:23.942Z,99.90
2023-04-27T23:28:52.882Z,99.90
2023-04-27T23:31:19.585Z,99.90
2023-04-27T23:33:46.261Z,99.90
2023-04-27T23:36:12.908Z,99.90
2023-04-27T23:38:42.061Z,99.90
2023-04-27T23:41:08.728Z,99.90
2023-04-27T23:43:35.404Z,99.90
2023-04-27T23:46:02.499Z,99.90
2023-04-27T23:48:29.188Z,99.90
2023-04-27T23:51:07.191Z,99.90
2023-04-27T23:53:36.028Z,99.90
2023-04-27T23:56:02.715Z,99.90
2023-04-27T23:58:29.440Z,99.90
